sensor_id;sensor_type;location;lat;lon;timestamp;pressure;altitude;pressure_sealevel;temperature;humidity
35551;BME280;21655;46.056;13.616;2022-09-09T00:04:40;100185.97;;;19.27;100.00
35551;BME280;21655;46.056;13.616;2022-09-09T00:09:47;100193.28;;;19.28;100.00
35551;BME280;21655;46.056;13.616;2022-09-09T00:12:24;100195.88;;;19.30;100.00
35551;BME280;21655;46.056;13.616;2022-09-09T00:15:02;100186.09;;;19.32;100.00
35551;BME280;21655;46.056;13.616;2022-09-09T00:17:58;100183.63;;;19.24;100.00
35551;BME280;21655;46.056;13.616;2022-09-09T00:20:36;100184.03;;;19.28;100.00
35551;BME280;21655;46.056;13.616;2022-09-09T00:23:08;100182.66;;;19.30;100.00
35551;BME280;21655;46.056;13.616;2022-09-09T00:25:49;100184.16;;;19.33;100.00
35551;BME280;21655;46.056;13.616;2022-09-09T00:28:23;100181.34;;;19.33;100.00
35551;BME280;21655;46.056;13.616;2022-09-09T00:30:50;100184.63;;;19.30;100.00
35551;BME280;21655;46.056;13.616;2022-09-09T00:33:19;100185.34;;;19.25;100.00
35551;BME280;21655;46.056;13.616;2022-09-09T00:35:50;100178.72;;;19.20;100.00
35551;BME280;21655;46.056;13.616;2022-09-09T00:46:59;100181.06;;;19.23;100.00
35551;BME280;21655;46.056;13.616;2022-09-09T00:49:36;100182.41;;;19.20;100.00
35551;BME280;21655;46.056;13.616;2022-09-09T00:52:30;100183.72;;;19.18;100.00
35551;BME280;21655;46.056;13.616;2022-09-09T00:57:40;100179.91;;;19.12;100.00
35551;BME280;21655;46.056;13.616;2022-09-09T01:00:25;100191.41;;;19.11;100.00
35551;BME280;21655;46.056;13.616;2022-09-09T01:03:18;100194.03;;;19.06;100.00
35551;BME280;21655;46.056;13.616;2022-09-09T01:11:21;100170.09;;;19.03;100.00
35551;BME280;21655;46.056;13.616;2022-09-09T01:13:53;100178.16;;;19.00;100.00
35551;BME280;21655;46.056;13.616;2022-09-09T01:16:21;100184.38;;;19.02;100.00
35551;BME280;21655;46.056;13.616;2022-09-09T01:18:49;100180.47;;;19.03;100.00
35551;BME280;21655;46.056;13.616;2022-09-09T01:21:50;100175.19;;;18.95;100.00
35551;BME280;21655;46.056;13.616;2022-09-09T01:24:27;100172.13;;;18.97;100.00
35551;BME280;21655;46.056;13.616;2022-09-09T01:27:00;100169.31;;;18.97;100.00
35551;BME280;21655;46.056;13.616;2022-09-09T01:29:26;100175.91;;;18.91;100.00
35551;BME280;21655;46.056;13.616;2022-09-09T01:31:57;100173.81;;;18.86;100.00
35551;BME280;21655;46.056;13.616;2022-09-09T01:34:29;100170.00;;;18.81;100.00
35551;BME280;21655;46.056;13.616;2022-09-09T01:37:07;100175.22;;;18.77;100.00
35551;BME280;21655;46.056;13.616;2022-09-09T01:39:35;100181.50;;;18.61;100.00
35551;BME280;21655;46.056;13.616;2022-09-09T01:42:02;100178.94;;;18.60;100.00
35551;BME280;21655;46.056;13.616;2022-09-09T01:44:30;100178.56;;;18.56;100.00
35551;BME280;21655;46.056;13.616;2022-09-09T01:46:56;100177.94;;;18.54;100.00
35551;BME280;21655;46.056;13.616;2022-09-09T01:49:21;100175.75;;;18.56;100.00
35551;BME280;21655;46.056;13.616;2022-09-09T01:51:51;100182.06;;;18.52;100.00
35551;BME280;21655;46.056;13.616;2022-09-09T01:54:18;100178.41;;;18.51;100.00
35551;BME280;21655;46.056;13.616;2022-09-09T02:05:05;100163.44;;;18.39;100.00
35551;BME280;21655;46.056;13.616;2022-09-09T02:10:09;100156.50;;;18.42;100.00
35551;BME280;21655;46.056;13.616;2022-09-09T02:12:35;100159.94;;;18.44;100.00
35551;BME280;21655;46.056;13.616;2022-09-09T02:15:11;100168.56;;;18.42;100.00
35551;BME280;21655;46.056;13.616;2022-09-09T02:17:38;100161.03;;;18.43;100.00
35551;BME280;21655;46.056;13.616;2022-09-09T02:20:10;100160.94;;;18.49;100.00
35551;BME280;21655;46.056;13.616;2022-09-09T02:22:39;100166.38;;;18.44;100.00
35551;BME280;21655;46.056;13.616;2022-09-09T02:25:08;100155.41;;;18.43;100.00
35551;BME280;21655;46.056;13.616;2022-09-09T02:27:36;100155.63;;;18.41;100.00
35551;BME280;21655;46.056;13.616;2022-09-09T02:30:03;100166.38;;;18.44;100.00
35551;BME280;21655;46.056;13.616;2022-09-09T02:32:31;100165.75;;;18.42;100.00
35551;BME280;21655;46.056;13.616;2022-09-09T02:35:02;100166.03;;;18.41;100.00
35551;BME280;21655;46.056;13.616;2022-09-09T02:37:35;100163.56;;;18.44;100.00
35551;BME280;21655;46.056;13.616;2022-09-09T02:40:05;100161.25;;;18.41;100.00
35551;BME280;21655;46.056;13.616;2022-09-09T02:42:31;100157.34;;;18.42;100.00
35551;BME280;21655;46.056;13.616;2022-09-09T02:44:57;100153.53;;;18.37;100.00
35551;BME280;21655;46.056;13.616;2022-09-09T02:53:09;100140.22;;;18.32;100.00
35551;BME280;21655;46.056;13.616;2022-09-09T02:55:58;100141.06;;;18.33;100.00
35551;BME280;21655;46.056;13.616;2022-09-09T02:58:28;100135.44;;;18.33;100.00
35551;BME280;21655;46.056;13.616;2022-09-09T03:00:53;100135.91;;;18.30;100.00
35551;BME280;21655;46.056;13.616;2022-09-09T03:03:19;100136.78;;;18.30;100.00
35551;BME280;21655;46.056;13.616;2022-09-09T03:05:45;100126.22;;;18.26;100.00
35551;BME280;21655;46.056;13.616;2022-09-09T03:08:11;100124.06;;;18.28;100.00
35551;BME280;21655;46.056;13.616;2022-09-09T03:10:38;100121.66;;;18.31;100.00
35551;BME280;21655;46.056;13.616;2022-09-09T03:13:04;100111.53;;;18.30;100.00
35551;BME280;21655;46.056;13.616;2022-09-09T03:15:31;100126.00;;;18.27;100.00
35551;BME280;21655;46.056;13.616;2022-09-09T03:17:57;100118.03;;;18.24;100.00
35551;BME280;21655;46.056;13.616;2022-09-09T03:20:24;100118.97;;;18.18;100.00
35551;BME280;21655;46.056;13.616;2022-09-09T03:22:52;100118.38;;;18.16;100.00
35551;BME280;21655;46.056;13.616;2022-09-09T03:25:18;100121.47;;;18.08;100.00
35551;BME280;21655;46.056;13.616;2022-09-09T03:27:43;100119.13;;;18.05;100.00
35551;BME280;21655;46.056;13.616;2022-09-09T03:30:09;100125.06;;;17.97;100.00
35551;BME280;21655;46.056;13.616;2022-09-09T03:32:34;100127.88;;;17.97;100.00
35551;BME280;21655;46.056;13.616;2022-09-09T03:35:00;100124.13;;;18.03;100.00
35551;BME280;21655;46.056;13.616;2022-09-09T03:37:25;100127.97;;;18.09;100.00
35551;BME280;21655;46.056;13.616;2022-09-09T03:39:51;100125.16;;;18.09;100.00
35551;BME280;21655;46.056;13.616;2022-09-09T03:42:19;100120.63;;;18.08;100.00
35551;BME280;21655;46.056;13.616;2022-09-09T03:44:46;100113.31;;;18.07;100.00
35551;BME280;21655;46.056;13.616;2022-09-09T03:47:18;100115.84;;;18.08;100.00
35551;BME280;21655;46.056;13.616;2022-09-09T03:49:45;100124.06;;;18.10;100.00
35551;BME280;21655;46.056;13.616;2022-09-09T03:52:11;100128.19;;;18.07;100.00
35551;BME280;21655;46.056;13.616;2022-09-09T03:54:38;100131.16;;;18.12;100.00
35551;BME280;21655;46.056;13.616;2022-09-09T03:57:04;100122.34;;;18.09;100.00
35551;BME280;21655;46.056;13.616;2022-09-09T03:59:30;100123.03;;;18.04;100.00
35551;BME280;21655;46.056;13.616;2022-09-09T04:01:56;100123.91;;;18.05;100.00
35551;BME280;21655;46.056;13.616;2022-09-09T04:04:22;100130.50;;;18.10;100.00
35551;BME280;21655;46.056;13.616;2022-09-09T04:06:47;100129.53;;;18.05;100.00
35551;BME280;21655;46.056;13.616;2022-09-09T04:09:14;100134.88;;;18.06;100.00
35551;BME280;21655;46.056;13.616;2022-09-09T04:11:39;100129.75;;;18.03;100.00
35551;BME280;21655;46.056;13.616;2022-09-09T04:14:05;100125.22;;;18.02;100.00
35551;BME280;21655;46.056;13.616;2022-09-09T04:16:34;100126.94;;;18.03;100.00
35551;BME280;21655;46.056;13.616;2022-09-09T04:19:02;100124.59;;;18.00;100.00
35551;BME280;21655;46.056;13.616;2022-09-09T04:21:30;100112.91;;;18.03;100.00
35551;BME280;21655;46.056;13.616;2022-09-09T04:23:55;100115.09;;;18.01;100.00
35551;BME280;21655;46.056;13.616;2022-09-09T04:26:21;100112.97;;;17.97;100.00
35551;BME280;21655;46.056;13.616;2022-09-09T04:28:46;100117.75;;;17.96;100.00
35551;BME280;21655;46.056;13.616;2022-09-09T04:31:20;100102.84;;;17.96;100.00
35551;BME280;21655;46.056;13.616;2022-09-09T04:33:48;100113.44;;;17.94;100.00
35551;BME280;21655;46.056;13.616;2022-09-09T04:36:14;100117.28;;;17.99;100.00
35551;BME280;21655;46.056;13.616;2022-09-09T04:38:39;100111.81;;;18.04;100.00
35551;BME280;21655;46.056;13.616;2022-09-09T04:41:06;100113.66;;;18.10;100.00
35551;BME280;21655;46.056;13.616;2022-09-09T04:43:32;100101.81;;;18.08;100.00
35551;BME280;21655;46.056;13.616;2022-09-09T04:45:58;100105.91;;;18.12;100.00
35551;BME280;21655;46.056;13.616;2022-09-09T04:48:26;100105.56;;;18.20;100.00
35551;BME280;21655;46.056;13.616;2022-09-09T04:51:03;100107.63;;;18.13;100.00
35551;BME280;21655;46.056;13.616;2022-09-09T04:53:30;100108.59;;;18.19;100.00
35551;BME280;21655;46.056;13.616;2022-09-09T04:56:09;100101.19;;;18.24;100.00
35551;BME280;21655;46.056;13.616;2022-09-09T04:58:36;100094.25;;;18.27;100.00
35551;BME280;21655;46.056;13.616;2022-09-09T05:03:36;100098.59;;;18.29;100.00
35551;BME280;21655;46.056;13.616;2022-09-09T05:06:07;100091.41;;;18.33;100.00
35551;BME280;21655;46.056;13.616;2022-09-09T05:08:34;100095.22;;;18.39;100.00
35551;BME280;21655;46.056;13.616;2022-09-09T05:11:00;100099.00;;;18.44;100.00
35551;BME280;21655;46.056;13.616;2022-09-09T05:13:28;100097.19;;;18.50;100.00
35551;BME280;21655;46.056;13.616;2022-09-09T05:15:54;100093.81;;;18.59;100.00
35551;BME280;21655;46.056;13.616;2022-09-09T05:18:20;100103.50;;;18.63;100.00
35551;BME280;21655;46.056;13.616;2022-09-09T05:20:48;100102.03;;;18.72;100.00
35551;BME280;21655;46.056;13.616;2022-09-09T05:23:13;100090.22;;;18.82;100.00
35551;BME280;21655;46.056;13.616;2022-09-09T05:25:39;100088.09;;;18.95;100.00
35551;BME280;21655;46.056;13.616;2022-09-09T05:28:05;100086.44;;;19.28;100.00
35551;BME280;21655;46.056;13.616;2022-09-09T05:30:32;100081.56;;;19.58;100.00
35551;BME280;21655;46.056;13.616;2022-09-09T05:32:57;100071.41;;;19.69;100.00
35551;BME280;21655;46.056;13.616;2022-09-09T05:35:23;100078.38;;;19.78;100.00
35551;BME280;21655;46.056;13.616;2022-09-09T05:37:48;100080.19;;;19.84;100.00
35551;BME280;21655;46.056;13.616;2022-09-09T05:40:14;100082.91;;;19.79;100.00
35551;BME280;21655;46.056;13.616;2022-09-09T05:42:40;100089.00;;;19.76;100.00
35551;BME280;21655;46.056;13.616;2022-09-09T05:45:07;100087.06;;;19.76;100.00
35551;BME280;21655;46.056;13.616;2022-09-09T05:47:34;100089.00;;;19.87;100.00
35551;BME280;21655;46.056;13.616;2022-09-09T05:50:00;100088.38;;;20.08;100.00
35551;BME280;21655;46.056;13.616;2022-09-09T05:52:25;100080.91;;;20.42;100.00
35551;BME280;21655;46.056;13.616;2022-09-09T05:54:52;100084.94;;;20.74;100.00
35551;BME280;21655;46.056;13.616;2022-09-09T05:57:19;100076.69;;;21.44;100.00
35551;BME280;21655;46.056;13.616;2022-09-09T05:59:45;100065.22;;;21.84;100.00
35551;BME280;21655;46.056;13.616;2022-09-09T06:02:10;100057.09;;;22.52;100.00
35551;BME280;21655;46.056;13.616;2022-09-09T06:04:37;100058.69;;;23.22;100.00
35551;BME280;21655;46.056;13.616;2022-09-09T06:07:03;100056.00;;;23.10;100.00
35551;BME280;21655;46.056;13.616;2022-09-09T06:09:29;100045.13;;;22.98;100.00
35551;BME280;21655;46.056;13.616;2022-09-09T06:11:55;100030.75;;;23.04;100.00
35551;BME280;21655;46.056;13.616;2022-09-09T06:14:21;100029.81;;;23.20;100.00
35551;BME280;21655;46.056;13.616;2022-09-09T06:16:47;100017.50;;;24.24;100.00
35551;BME280;21655;46.056;13.616;2022-09-09T06:19:12;100028.63;;;23.84;100.00
35551;BME280;21655;46.056;13.616;2022-09-09T06:21:38;100034.78;;;23.39;100.00
35551;BME280;21655;46.056;13.616;2022-09-09T06:24:04;100037.19;;;22.95;100.00
35551;BME280;21655;46.056;13.616;2022-09-09T06:26:35;100028.88;;;22.57;100.00
35551;BME280;21655;46.056;13.616;2022-09-09T06:29:02;100040.75;;;22.37;100.00
35551;BME280;21655;46.056;13.616;2022-09-09T06:31:30;100048.34;;;22.10;100.00
35551;BME280;21655;46.056;13.616;2022-09-09T06:33:57;100048.13;;;21.95;100.00
35551;BME280;21655;46.056;13.616;2022-09-09T06:36:27;100050.56;;;21.87;100.00
35551;BME280;21655;46.056;13.616;2022-09-09T06:38:53;100059.47;;;21.79;100.00
35551;BME280;21655;46.056;13.616;2022-09-09T06:41:21;100072.75;;;21.78;100.00
35551;BME280;21655;46.056;13.616;2022-09-09T06:43:47;100082.16;;;21.67;100.00
35551;BME280;21655;46.056;13.616;2022-09-09T06:46:24;100091.66;;;21.61;100.00
35551;BME280;21655;46.056;13.616;2022-09-09T06:48:53;100101.66;;;21.52;100.00
35551;BME280;21655;46.056;13.616;2022-09-09T06:51:22;100092.00;;;21.48;100.00
35551;BME280;21655;46.056;13.616;2022-09-09T06:53:50;100094.56;;;21.50;100.00
35551;BME280;21655;46.056;13.616;2022-09-09T06:56:17;100108.03;;;21.48;100.00
35551;BME280;21655;46.056;13.616;2022-09-09T06:58:44;100093.78;;;21.21;100.00
35551;BME280;21655;46.056;13.616;2022-09-09T07:01:12;100100.69;;;20.98;100.00
35551;BME280;21655;46.056;13.616;2022-09-09T07:03:41;100100.00;;;20.79;100.00
35551;BME280;21655;46.056;13.616;2022-09-09T07:06:09;100102.81;;;20.79;100.00
35551;BME280;21655;46.056;13.616;2022-09-09T07:08:39;100098.81;;;20.75;100.00
35551;BME280;21655;46.056;13.616;2022-09-09T07:11:07;100104.44;;;20.75;100.00
35551;BME280;21655;46.056;13.616;2022-09-09T07:13:33;100110.31;;;20.74;100.00
35551;BME280;21655;46.056;13.616;2022-09-09T07:16:06;100122.59;;;20.68;100.00
35551;BME280;21655;46.056;13.616;2022-09-09T07:18:32;100124.97;;;20.59;100.00
35551;BME280;21655;46.056;13.616;2022-09-09T07:20:58;100111.84;;;20.65;100.00
35551;BME280;21655;46.056;13.616;2022-09-09T07:23:24;100101.72;;;20.80;100.00
35551;BME280;21655;46.056;13.616;2022-09-09T07:25:51;100094.97;;;21.42;100.00
35551;BME280;21655;46.056;13.616;2022-09-09T07:28:18;100106.84;;;21.11;100.00
35551;BME280;21655;46.056;13.616;2022-09-09T07:30:59;100106.13;;;20.88;100.00
35551;BME280;21655;46.056;13.616;2022-09-09T07:33:28;100111.50;;;20.89;100.00
35551;BME280;21655;46.056;13.616;2022-09-09T07:36:24;100116.66;;;20.81;100.00
35551;BME280;21655;46.056;13.616;2022-09-09T07:38:52;100122.38;;;20.69;100.00
35551;BME280;21655;46.056;13.616;2022-09-09T07:41:22;100119.88;;;20.73;100.00
35551;BME280;21655;46.056;13.616;2022-09-09T07:43:49;100120.47;;;20.86;100.00
35551;BME280;21655;46.056;13.616;2022-09-09T07:46:16;100121.66;;;21.18;100.00
35551;BME280;21655;46.056;13.616;2022-09-09T07:48:47;100121.25;;;21.75;100.00
35551;BME280;21655;46.056;13.616;2022-09-09T07:51:17;100100.78;;;23.45;100.00
35551;BME280;21655;46.056;13.616;2022-09-09T07:53:44;100118.72;;;22.33;100.00
35551;BME280;21655;46.056;13.616;2022-09-09T07:56:12;100133.38;;;21.92;100.00
35551;BME280;21655;46.056;13.616;2022-09-09T07:58:38;100151.44;;;21.75;100.00
35551;BME280;21655;46.056;13.616;2022-09-09T08:01:16;100131.00;;;22.87;100.00
35551;BME280;21655;46.056;13.616;2022-09-09T08:03:43;100092.94;;;28.09;81.70
35551;BME280;21655;46.056;13.616;2022-09-09T08:06:09;100089.41;;;28.17;80.94
35551;BME280;21655;46.056;13.616;2022-09-09T08:08:36;100095.38;;;28.91;75.91
35551;BME280;21655;46.056;13.616;2022-09-09T08:11:14;100097.28;;;29.37;70.50
35551;BME280;21655;46.056;13.616;2022-09-09T08:13:41;100095.44;;;28.63;73.47
35551;BME280;21655;46.056;13.616;2022-09-09T08:16:22;100083.50;;;30.81;63.72
35551;BME280;21655;46.056;13.616;2022-09-09T08:18:48;100088.72;;;31.76;60.04
35551;BME280;21655;46.056;13.616;2022-09-09T08:21:20;100074.22;;;29.84;63.48
35551;BME280;21655;46.056;13.616;2022-09-09T08:23:47;100070.16;;;26.26;85.03
35551;BME280;21655;46.056;13.616;2022-09-09T08:26:18;100079.88;;;24.34;100.00
35551;BME280;21655;46.056;13.616;2022-09-09T08:28:48;100095.13;;;23.45;100.00
35551;BME280;21655;46.056;13.616;2022-09-09T08:31:23;100099.31;;;22.85;100.00
35551;BME280;21655;46.056;13.616;2022-09-09T08:33:49;100116.13;;;22.32;100.00
35551;BME280;21655;46.056;13.616;2022-09-09T08:36:17;100103.44;;;21.91;100.00
35551;BME280;21655;46.056;13.616;2022-09-09T08:38:43;100101.22;;;21.60;100.00
35551;BME280;21655;46.056;13.616;2022-09-09T08:43:41;100084.13;;;21.50;100.00
35551;BME280;21655;46.056;13.616;2022-09-09T08:46:16;100078.91;;;21.42;100.00
35551;BME280;21655;46.056;13.616;2022-09-09T08:49:10;100083.28;;;21.33;100.00
35551;BME280;21655;46.056;13.616;2022-09-09T08:51:42;100072.66;;;21.24;100.00
35551;BME280;21655;46.056;13.616;2022-09-09T08:54:08;100061.56;;;21.17;100.00
35551;BME280;21655;46.056;13.616;2022-09-09T08:56:35;100051.31;;;21.11;100.00
35551;BME280;21655;46.056;13.616;2022-09-09T08:59:02;100050.38;;;21.06;100.00
35551;BME280;21655;46.056;13.616;2022-09-09T09:16:02;100100.84;;;20.91;100.00
35551;BME280;21655;46.056;13.616;2022-09-09T09:18:31;100112.03;;;20.86;100.00
35551;BME280;21655;46.056;13.616;2022-09-09T09:23:38;100144.16;;;20.85;100.00
35551;BME280;21655;46.056;13.616;2022-09-09T09:26:09;100148.66;;;20.86;100.00
35551;BME280;21655;46.056;13.616;2022-09-09T09:28:36;100160.31;;;20.78;100.00
35551;BME280;21655;46.056;13.616;2022-09-09T09:31:05;100149.69;;;20.69;100.00
35551;BME280;21655;46.056;13.616;2022-09-09T09:33:43;100162.81;;;20.63;100.00
35551;BME280;21655;46.056;13.616;2022-09-09T09:36:12;100154.50;;;20.57;100.00
35551;BME280;21655;46.056;13.616;2022-09-09T09:38:54;100149.38;;;20.54;100.00
35551;BME280;21655;46.056;13.616;2022-09-09T09:44:01;100176.69;;;20.53;100.00
35551;BME280;21655;46.056;13.616;2022-09-09T09:46:27;100178.13;;;20.56;100.00
35551;BME280;21655;46.056;13.616;2022-09-09T09:48:59;100178.75;;;20.58;100.00
35551;BME280;21655;46.056;13.616;2022-09-09T09:51:26;100166.13;;;20.60;100.00
35551;BME280;21655;46.056;13.616;2022-09-09T09:53:52;100162.84;;;20.52;100.00
35551;BME280;21655;46.056;13.616;2022-09-09T09:56:27;100167.63;;;20.51;100.00
35551;BME280;21655;46.056;13.616;2022-09-09T09:58:56;100179.75;;;20.52;100.00
35551;BME280;21655;46.056;13.616;2022-09-09T10:01:22;100187.84;;;20.60;100.00
35551;BME280;21655;46.056;13.616;2022-09-09T10:03:55;100190.84;;;20.70;100.00
35551;BME280;21655;46.056;13.616;2022-09-09T10:06:36;100187.78;;;20.71;100.00
35551;BME280;21655;46.056;13.616;2022-09-09T10:09:25;100180.69;;;20.69;100.00
35551;BME280;21655;46.056;13.616;2022-09-09T10:22:33;100153.06;;;20.94;100.00
35551;BME280;21655;46.056;13.616;2022-09-09T10:25:11;100148.97;;;21.01;100.00
35551;BME280;21655;46.056;13.616;2022-09-09T10:30:53;100153.38;;;21.41;100.00
35551;BME280;21655;46.056;13.616;2022-09-09T10:36:24;100128.84;;;24.71;100.00
35551;BME280;21655;46.056;13.616;2022-09-09T10:39:05;100108.28;;;26.25;93.14
35551;BME280;21655;46.056;13.616;2022-09-09T10:41:44;100100.72;;;26.74;86.16
35551;BME280;21655;46.056;13.616;2022-09-09T10:50:12;100078.97;;;29.02;70.49
35551;BME280;21655;46.056;13.616;2022-09-09T10:55:37;100074.19;;;32.03;52.38
35551;BME280;21655;46.056;13.616;2022-09-09T10:58:05;100066.41;;;31.73;52.68
35551;BME280;21655;46.056;13.616;2022-09-09T11:03:02;100052.09;;;31.60;53.54
35551;BME280;21655;46.056;13.616;2022-09-09T11:08:12;100055.00;;;31.25;56.30
35551;BME280;21655;46.056;13.616;2022-09-09T11:13:14;100053.28;;;30.02;57.86
35551;BME280;21655;46.056;13.616;2022-09-09T11:15:54;100056.56;;;27.96;63.40
35551;BME280;21655;46.056;13.616;2022-09-09T11:18:23;100051.66;;;26.38;75.79
35551;BME280;21655;46.056;13.616;2022-09-09T11:20:52;100056.06;;;25.86;79.89
35551;BME280;21655;46.056;13.616;2022-09-09T11:23:26;100055.22;;;25.65;81.48
35551;BME280;21655;46.056;13.616;2022-09-09T11:25:58;100046.13;;;25.73;83.66
35551;BME280;21655;46.056;13.616;2022-09-09T11:28:52;100037.69;;;26.52;80.62
35551;BME280;21655;46.056;13.616;2022-09-09T11:31:42;100040.06;;;27.93;73.54
35551;BME280;21655;46.056;13.616;2022-09-09T11:34:27;100038.75;;;27.14;72.06
35551;BME280;21655;46.056;13.616;2022-09-09T11:40:08;100035.31;;;24.96;86.24
35551;BME280;21655;46.056;13.616;2022-09-09T11:42:39;100029.97;;;25.24;86.86
35551;BME280;21655;46.056;13.616;2022-09-09T11:45:23;100042.44;;;25.28;85.78
35551;BME280;21655;46.056;13.616;2022-09-09T11:47:58;100031.88;;;25.03;87.44
35551;BME280;21655;46.056;13.616;2022-09-09T11:52:50;100035.56;;;24.84;86.69
35551;BME280;21655;46.056;13.616;2022-09-09T11:55:26;100028.19;;;26.71;78.33
35551;BME280;21655;46.056;13.616;2022-09-09T11:58:03;100035.41;;;26.44;74.24
35551;BME280;21655;46.056;13.616;2022-09-09T12:02:59;100038.50;;;28.95;63.69
35551;BME280;21655;46.056;13.616;2022-09-09T12:05:36;100019.53;;;28.62;61.91
35551;BME280;21655;46.056;13.616;2022-09-09T12:08:03;100018.59;;;29.77;57.82
35551;BME280;21655;46.056;13.616;2022-09-09T12:10:31;100015.06;;;30.79;55.28
35551;BME280;21655;46.056;13.616;2022-09-09T12:13:27;100009.59;;;31.18;51.47
35551;BME280;21655;46.056;13.616;2022-09-09T12:15:58;100004.16;;;29.68;56.68
35551;BME280;21655;46.056;13.616;2022-09-09T12:18:34;100003.94;;;28.96;59.78
35551;BME280;21655;46.056;13.616;2022-09-09T12:42:29;99981.94;;;26.46;71.37
35551;BME280;21655;46.056;13.616;2022-09-09T12:44:59;99983.34;;;26.92;68.19
35551;BME280;21655;46.056;13.616;2022-09-09T12:47:55;99965.13;;;27.31;65.49
35551;BME280;21655;46.056;13.616;2022-09-09T12:50:22;99964.41;;;26.77;67.69
35551;BME280;21655;46.056;13.616;2022-09-09T12:52:58;99958.00;;;26.57;70.39
35551;BME280;21655;46.056;13.616;2022-09-09T12:55:28;99964.53;;;25.94;73.40
35551;BME280;21655;46.056;13.616;2022-09-09T12:57:56;99954.56;;;26.01;75.72
35551;BME280;21655;46.056;13.616;2022-09-09T13:00:24;99960.59;;;25.80;75.85
35551;BME280;21655;46.056;13.616;2022-09-09T13:02:53;99952.38;;;25.68;76.06
35551;BME280;21655;46.056;13.616;2022-09-09T13:05:25;99957.25;;;25.43;76.34
35551;BME280;21655;46.056;13.616;2022-09-09T13:07:51;99949.78;;;25.77;75.54
35551;BME280;21655;46.056;13.616;2022-09-09T13:10:24;99946.97;;;26.40;72.98
35551;BME280;21655;46.056;13.616;2022-09-09T13:12:51;99937.75;;;26.63;70.89
35551;BME280;21655;46.056;13.616;2022-09-09T13:15:23;99927.69;;;26.76;71.44
35551;BME280;21655;46.056;13.616;2022-09-09T13:17:54;99918.88;;;26.77;70.30
35551;BME280;21655;46.056;13.616;2022-09-09T13:20:22;99934.47;;;26.41;71.65
35551;BME280;21655;46.056;13.616;2022-09-09T13:22:49;99903.88;;;25.50;73.95
35551;BME280;21655;46.056;13.616;2022-09-09T13:25:20;99906.75;;;24.90;79.27
35551;BME280;21655;46.056;13.616;2022-09-09T13:27:53;99893.69;;;24.49;82.44
35551;BME280;21655;46.056;13.616;2022-09-09T13:32:48;99910.31;;;24.06;85.92
35551;BME280;21655;46.056;13.616;2022-09-09T13:35:24;99915.94;;;23.96;87.25
35551;BME280;21655;46.056;13.616;2022-09-09T13:37:50;99917.31;;;23.83;88.40
35551;BME280;21655;46.056;13.616;2022-09-09T13:40:20;99920.63;;;23.80;89.29
35551;BME280;21655;46.056;13.616;2022-09-09T13:42:50;99922.63;;;23.80;88.54
35551;BME280;21655;46.056;13.616;2022-09-09T13:45:22;99937.38;;;23.82;90.93
35551;BME280;21655;46.056;13.616;2022-09-09T13:47:49;99941.03;;;23.77;91.58
35551;BME280;21655;46.056;13.616;2022-09-09T13:50:28;99918.09;;;23.74;89.84
35551;BME280;21655;46.056;13.616;2022-09-09T13:52:56;99910.69;;;23.68;91.03
35551;BME280;21655;46.056;13.616;2022-09-09T13:55:25;99903.56;;;23.60;91.68
35551;BME280;21655;46.056;13.616;2022-09-09T13:57:59;99888.84;;;23.63;90.99
35551;BME280;21655;46.056;13.616;2022-09-09T14:00:32;99908.66;;;23.58;88.84
35551;BME280;21655;46.056;13.616;2022-09-09T14:02:58;99930.66;;;23.46;90.56
35551;BME280;21655;46.056;13.616;2022-09-09T14:05:26;99941.91;;;23.31;89.63
35551;BME280;21655;46.056;13.616;2022-09-09T14:07:52;99944.03;;;23.14;90.64
35551;BME280;21655;46.056;13.616;2022-09-09T14:10:18;99944.50;;;23.06;90.96
35551;BME280;21655;46.056;13.616;2022-09-09T14:12:44;99936.41;;;23.15;90.50
35551;BME280;21655;46.056;13.616;2022-09-09T14:15:10;99934.91;;;23.07;91.39
35551;BME280;21655;46.056;13.616;2022-09-09T14:17:36;99932.31;;;23.06;92.45
35551;BME280;21655;46.056;13.616;2022-09-09T14:20:03;99934.91;;;23.07;94.16
35551;BME280;21655;46.056;13.616;2022-09-09T14:22:31;99949.56;;;23.00;92.22
35551;BME280;21655;46.056;13.616;2022-09-09T14:24:56;99937.56;;;22.88;91.78
35551;BME280;21655;46.056;13.616;2022-09-09T17:16:03;100024.03;;;19.77;100.00
35551;BME280;21655;46.056;13.616;2022-09-09T17:18:29;100020.03;;;19.73;100.00
35551;BME280;21655;46.056;13.616;2022-09-09T17:20:55;100017.41;;;19.83;100.00
35551;BME280;21655;46.056;13.616;2022-09-09T17:23:21;100020.63;;;19.75;100.00
35551;BME280;21655;46.056;13.616;2022-09-09T17:25:56;100020.53;;;19.70;100.00
35551;BME280;21655;46.056;13.616;2022-09-09T17:28:22;100024.06;;;19.66;100.00
35551;BME280;21655;46.056;13.616;2022-09-09T17:30:52;100027.72;;;19.66;100.00
35551;BME280;21655;46.056;13.616;2022-09-09T17:33:17;100032.13;;;19.62;100.00
35551;BME280;21655;46.056;13.616;2022-09-09T17:35:46;100038.28;;;19.59;100.00
35551;BME280;21655;46.056;13.616;2022-09-09T17:38:11;100034.25;;;19.55;100.00
35551;BME280;21655;46.056;13.616;2022-09-09T17:40:37;100026.53;;;19.51;100.00
35551;BME280;21655;46.056;13.616;2022-09-09T17:43:03;100030.06;;;19.46;100.00
35551;BME280;21655;46.056;13.616;2022-09-09T17:45:28;100039.50;;;19.40;100.00